Time;durP1;ratioP1;P1;durP2;ratioP2;P2;SDS_P1;SDS_P2;PMS_P1;PMS_P2;Temp;Humidity;BMP_temperature;BMP_pressure;BME280_temperature;BME280_humidity;BME280_pressure;Samples;Min_cycle;Max_cycle;Signal;HPM_P1;HPM_P2
2023/08/13 00:02:22;;;;;;;17.23;4.40;;;17.20;99.90;;;;;;4892360;29;20280;-65
2023/08/13 00:04:48;;;;;;;17.08;3.80;;;17.20;99.90;;;;;;4895201;29;20190;-64
2023/08/13 00:07:14;;;;;;;17.58;3.85;;;17.20;99.90;;;;;;4895904;29;20224;-64
2023/08/13 00:09:40;;;;;;;9.95;3.42;;;17.20;99.90;;;;;;4894562;29;20185;-65
2023/08/13 00:12:06;;;;;;;11.70;3.60;;;17.20;99.90;;;;;;4895411;29;20220;-63
2023/08/13 00:14:32;;;;;;;17.60;3.67;;;17.10;99.90;;;;;;4893678;29;20197;-64
2023/08/13 00:16:58;;;;;;;14.18;3.33;;;17.10;99.90;;;;;;4891696;29;20223;-64
2023/08/13 00:19:24;;;;;;;15.52;3.40;;;17.10;99.90;;;;;;4889362;29;20200;-63
2023/08/13 00:21:50;;;;;;;15.10;3.60;;;17.10;99.90;;;;;;4889663;29;20221;-64
2023/08/13 00:24:16;;;;;;;14.82;3.40;;;17.10;99.90;;;;;;4890066;29;20583;-63
2023/08/13 00:26:44;;;;;;;15.68;3.17;;;17.10;99.90;;;;;;4881724;29;20280;-63
2023/08/13 00:29:11;;;;;;;14.50;3.30;;;17.10;99.90;;;;;;4861686;29;20208;-63
2023/08/13 00:31:36;;;;;;;12.30;3.50;;;17.10;99.90;;;;;;4883502;29;20197;-64
2023/08/13 00:34:03;;;;;;;16.27;3.85;;;17.00;99.90;;;;;;4896266;29;20188;-64
2023/08/13 00:36:29;;;;;;;15.93;3.58;;;17.00;99.90;;;;;;4888759;29;20318;-63
2023/08/13 00:38:54;;;;;;;13.75;3.50;;;17.00;99.90;;;;;;4896061;29;20709;-64
2023/08/13 00:41:20;;;;;;;16.35;3.60;;;16.90;99.90;;;;;;4894894;29;20587;-64
2023/08/13 00:43:46;;;;;;;10.82;3.53;;;17.00;99.90;;;;;;4882334;29;20209;-64
2023/08/13 00:46:13;;;;;;;10.90;3.50;;;16.90;99.90;;;;;;4894410;29;20197;-63
2023/08/13 00:48:40;;;;;;;15.15;3.30;;;16.90;99.90;;;;;;4895602;29;20204;-64
2023/08/13 00:51:09;;;;;;;14.48;3.95;;;16.90;99.90;;;;;;4892058;29;20181;-64
2023/08/13 00:53:47;;;;;;;15.60;3.63;;;16.90;99.90;;;;;;4880098;29;20302;-63
2023/08/13 00:56:14;;;;;;;14.95;4.43;;;16.90;99.90;;;;;;4897950;29;20200;-64
2023/08/13 00:58:42;;;;;;;14.77;3.72;;;16.90;99.90;;;;;;4894370;29;20196;-64
2023/08/13 01:01:09;;;;;;;14.52;3.47;;;16.90;99.90;;;;;;4886097;29;20193;-65
2023/08/13 01:03:36;;;;;;;16.08;4.18;;;16.80;99.90;;;;;;4895802;29;20193;-65
2023/08/13 01:06:21;;;;;;;16.13;3.50;;;16.90;99.90;;;;;;4892387;29;20188;-65
2023/08/13 01:09:02;;;;;;;17.73;4.47;;;16.80;99.90;;;;;;4897942;29;20192;-66
2023/08/13 01:12:02;;;;;;;17.60;3.95;;;16.80;99.90;;;;;;4896973;29;20201;-65
2023/08/13 01:14:43;;;;;;;14.35;4.30;;;16.80;99.90;;;;;;4898747;29;20188;-64
2023/08/13 01:17:11;;;;;;;16.83;4.45;;;16.80;99.90;;;;;;4897186;29;20192;-66
2023/08/13 01:19:37;;;;;;;14.25;3.60;;;16.80;99.90;;;;;;4889747;29;20270;-66
2023/08/13 01:22:03;;;;;;;16.65;4.10;;;16.80;99.90;;;;;;4893885;29;20769;-65
2023/08/13 01:24:29;;;;;;;12.65;4.00;;;16.80;99.90;;;;;;4891827;29;20216;-65
2023/08/13 01:27:37;;;;;;;21.00;4.40;;;16.80;99.90;;;;;;4892033;29;20196;-64
2023/08/13 01:30:44;;;;;;;14.40;4.20;;;16.70;99.90;;;;;;4886180;29;20190;-65
2023/08/13 01:33:18;;;;;;;13.68;4.18;;;16.70;99.90;;;;;;4853141;29;20298;-65
2023/08/13 01:35:45;;;;;;;15.93;3.80;;;16.70;99.90;;;;;;4882206;29;20253;-64
2023/08/13 01:38:11;;;;;;;24.98;4.30;;;16.70;99.90;;;;;;4895475;29;20193;-65
2023/08/13 01:40:37;;;;;;;12.55;3.97;;;16.70;99.90;;;;;;4889723;29;20197;-63
2023/08/13 01:43:03;;;;;;;16.30;3.78;;;16.70;99.90;;;;;;4892707;29;20204;-65
2023/08/13 01:45:29;;;;;;;22.33;4.70;;;16.70;99.90;;;;;;4878793;29;20634;-66
2023/08/13 01:47:55;;;;;;;22.25;4.20;;;16.70;99.90;;;;;;4897758;29;20203;-66
2023/08/13 01:50:22;;;;;;;13.88;3.67;;;16.70;99.90;;;;;;4898214;29;20216;-64
2023/08/13 01:52:48;;;;;;;23.20;4.43;;;16.70;99.90;;;;;;4891220;29;20740;-63
2023/08/13 01:55:14;;;;;;;16.25;4.10;;;16.70;99.90;;;;;;4896137;29;20260;-63
2023/08/13 01:57:40;;;;;;;16.48;4.38;;;16.70;99.90;;;;;;4883358;29;20305;-64
2023/08/13 02:00:07;;;;;;;19.23;3.97;;;16.70;99.90;;;;;;4887305;29;20222;-64
2023/08/13 02:02:36;;;;;;;14.70;4.03;;;16.60;99.90;;;;;;4897632;29;20271;-62
2023/08/13 02:05:02;;;;;;;13.52;3.97;;;16.60;99.90;;;;;;4895902;29;20200;-62
2023/08/13 02:07:28;;;;;;;16.70;4.25;;;16.60;99.90;;;;;;4898345;29;20733;-63
2023/08/13 02:09:54;;;;;;;20.33;4.97;;;16.60;99.90;;;;;;4911186;29;20205;-62
2023/08/13 02:12:20;;;;;;;17.52;4.40;;;16.60;99.90;;;;;;4892042;29;20277;-62
2023/08/13 02:14:46;;;;;;;19.83;4.35;;;16.60;99.90;;;;;;4892606;29;20189;-61
2023/08/13 02:17:14;;;;;;;19.52;4.22;;;16.60;99.90;;;;;;4896809;29;20197;-62
2023/08/13 02:19:40;;;;;;;27.60;4.40;;;16.60;99.90;;;;;;4911698;29;20223;-62
2023/08/13 02:22:07;;;;;;;21.10;4.55;;;16.60;99.90;;;;;;4887111;29;20698;-62
2023/08/13 02:24:33;;;;;;;22.95;4.35;;;16.60;99.90;;;;;;4882956;29;20575;-62
2023/08/13 02:26:59;;;;;;;26.67;4.40;;;16.60;99.90;;;;;;4886162;29;20185;-62
2023/08/13 02:29:25;;;;;;;19.85;4.53;;;16.60;99.90;;;;;;4894687;29;20196;-64
2023/08/13 02:31:53;;;;;;;13.65;4.47;;;16.60;99.90;;;;;;4889442;29;20248;-63
2023/08/13 02:34:19;;;;;;;19.48;4.20;;;16.60;99.90;;;;;;4896725;29;20219;-65
2023/08/13 02:36:45;;;;;;;22.48;4.53;;;16.60;99.90;;;;;;4891914;29;20559;-62
2023/08/13 02:39:11;;;;;;;27.38;4.40;;;16.60;99.90;;;;;;4911470;29;20201;-62
2023/08/13 02:41:37;;;;;;;19.80;4.40;;;16.50;99.90;;;;;;4890688;29;20215;-63
2023/08/13 02:44:03;;;;;;;23.05;4.43;;;16.60;99.90;;;;;;4876655;29;20204;-62
2023/08/13 02:46:29;;;;;;;25.38;4.80;;;16.50;99.90;;;;;;4865824;29;20568;-62
2023/08/13 02:48:55;;;;;;;11.10;3.85;;;16.60;99.90;;;;;;4883764;29;20188;-63
2023/08/13 02:51:25;;;;;;;17.73;4.65;;;16.50;99.90;;;;;;4895445;29;20229;-62
2023/08/13 02:53:51;;;;;;;18.55;4.47;;;16.50;99.90;;;;;;4894418;29;20228;-62
2023/08/13 02:56:19;;;;;;;23.08;4.18;;;16.50;99.90;;;;;;4904473;29;20245;-61
2023/08/13 02:58:45;;;;;;;19.80;4.53;;;16.50;99.90;;;;;;4889009;29;20223;-64
2023/08/13 03:01:12;;;;;;;18.73;4.50;;;16.50;99.90;;;;;;4895734;29;20197;-62
2023/08/13 03:03:38;;;;;;;22.42;4.97;;;16.50;99.90;;;;;;4910995;29;20622;-64
2023/08/13 03:06:04;;;;;;;20.10;4.60;;;16.50;99.90;;;;;;4895518;29;20197;-64
2023/08/13 03:08:31;;;;;;;18.95;4.25;;;16.50;99.90;;;;;;4896375;29;20205;-64
2023/08/13 03:10:57;;;;;;;17.73;4.20;;;16.50;99.90;;;;;;4888026;29;20607;-64
2023/08/13 03:13:22;;;;;;;21.48;5.03;;;16.50;99.90;;;;;;4911123;29;20291;-64
2023/08/13 03:15:48;;;;;;;23.63;5.00;;;16.50;99.90;;;;;;4895709;29;20306;-64
2023/08/13 03:18:14;;;;;;;18.38;4.22;;;16.50;99.90;;;;;;4890462;29;20204;-64
2023/08/13 03:20:45;;;;;;;22.58;4.68;;;16.50;99.90;;;;;;4890951;29;20229;-63
2023/08/13 03:23:11;;;;;;;23.77;4.85;;;16.50;99.90;;;;;;4908477;29;20264;-65
2023/08/13 03:25:40;;;;;;;20.45;4.90;;;16.40;99.90;;;;;;4894891;29;20212;-64
2023/08/13 03:28:06;;;;;;;19.17;4.60;;;16.40;99.90;;;;;;4892884;29;20611;-65
2023/08/13 03:30:32;;;;;;;18.27;5.38;;;16.40;99.90;;;;;;4896223;29;20235;-63
2023/08/13 03:32:59;;;;;;;22.83;4.60;;;16.40;99.90;;;;;;4892407;29;20209;-61
2023/08/13 03:35:24;;;;;;;18.65;4.78;;;16.30;99.90;;;;;;4892207;29;20194;-62
2023/08/13 03:37:51;;;;;;;21.45;5.50;;;16.40;99.90;;;;;;4886384;29;20292;-65
2023/08/13 03:40:17;;;;;;;21.88;5.18;;;16.30;99.90;;;;;;4895125;29;20271;-65
2023/08/13 03:42:43;;;;;;;20.50;4.45;;;16.30;99.90;;;;;;4895641;29;20223;-65
2023/08/13 03:45:09;;;;;;;15.98;4.63;;;16.30;99.90;;;;;;4895452;29;20744;-66
2023/08/13 03:47:36;;;;;;;31.98;5.65;;;16.30;99.90;;;;;;4886729;29;20220;-63
2023/08/13 03:50:02;;;;;;;18.15;4.72;;;16.30;99.90;;;;;;4886251;29;20201;-61
2023/08/13 03:52:29;;;;;;;19.23;4.70;;;16.30;99.90;;;;;;4889834;29;20225;-66
2023/08/13 03:54:55;;;;;;;22.58;5.00;;;16.30;99.90;;;;;;4889141;29;20215;-64
2023/08/13 03:57:21;;;;;;;22.63;5.57;;;16.40;99.90;;;;;;4890822;29;20197;-65
2023/08/13 03:59:47;;;;;;;23.60;4.78;;;16.30;99.90;;;;;;4888203;29;20244;-65
2023/08/13 04:02:13;;;;;;;20.58;5.50;;;16.40;99.90;;;;;;4894627;29;20195;-65
2023/08/13 04:04:39;;;;;;;21.58;5.03;;;16.40;99.90;;;;;;4886463;29;20201;-63
2023/08/13 04:07:06;;;;;;;23.13;5.25;;;16.40;99.90;;;;;;4888893;29;20204;-63
2023/08/13 04:09:32;;;;;;;19.42;5.35;;;16.30;99.90;;;;;;4894896;29;20192;-63
2023/08/13 04:11:59;;;;;;;26.20;5.57;;;16.40;99.90;;;;;;4889975;29;20221;-62
2023/08/13 04:14:24;;;;;;;24.70;5.40;;;16.40;99.90;;;;;;4894674;29;20616;-62
2023/08/13 04:16:50;;;;;;;19.88;5.28;;;16.40;99.90;;;;;;4893592;29;20201;-63
2023/08/13 04:19:17;;;;;;;20.40;5.03;;;16.40;99.90;;;;;;4895175;29;20192;-62
2023/08/13 04:21:43;;;;;;;21.95;5.07;;;16.40;99.90;;;;;;4899396;29;20239;-62
2023/08/13 04:24:11;;;;;;;20.52;5.18;;;16.40;99.90;;;;;;4900959;29;20543;-62
2023/08/13 04:26:37;;;;;;;17.85;5.22;;;16.50;99.90;;;;;;4906527;29;20190;-62
2023/08/13 04:29:04;;;;;;;21.92;5.30;;;16.50;99.90;;;;;;4906230;29;20200;-63
2023/08/13 04:31:30;;;;;;;22.23;5.00;;;16.60;99.90;;;;;;4895746;29;20653;-63
2023/08/13 04:33:56;;;;;;;19.77;4.85;;;16.70;99.90;;;;;;4890137;29;20236;-62
2023/08/13 04:36:22;;;;;;;21.55;5.57;;;16.70;99.90;;;;;;4890259;29;20296;-64
2023/08/13 04:38:48;;;;;;;21.42;5.28;;;16.80;99.90;;;;;;4880074;29;20202;-64
2023/08/13 04:41:15;;;;;;;21.10;4.63;;;16.80;99.90;;;;;;4908203;29;20192;-62
2023/08/13 04:43:44;;;;;;;20.08;5.22;;;16.90;99.90;;;;;;4882649;29;20201;-64
2023/08/13 04:46:10;;;;;;;18.90;4.55;;;16.90;99.90;;;;;;4892501;29;20700;-64
2023/08/13 04:48:46;;;;;;;18.73;4.97;;;17.00;99.90;;;;;;4891889;29;20212;-62
2023/08/13 04:51:15;;;;;;;21.08;4.90;;;17.00;99.90;;;;;;4893345;29;20189;-63
2023/08/13 04:53:42;;;;;;;18.02;4.72;;;17.00;99.90;;;;;;4896202;29;20219;-62
2023/08/13 04:56:08;;;;;;;19.77;4.60;;;17.10;99.90;;;;;;4893117;29;20641;-65
2023/08/13 04:58:35;;;;;;;17.33;4.50;;;17.10;99.90;;;;;;4867724;29;20198;-64
2023/08/13 05:01:02;;;;;;;16.08;4.65;;;17.20;99.90;;;;;;4895369;29;20189;-64
2023/08/13 05:03:33;;;;;;;21.15;4.53;;;17.20;99.90;;;;;;4907146;29;20260;-64
2023/08/13 05:05:59;;;;;;;16.38;4.50;;;17.30;99.90;;;;;;4883616;29;20192;-64
2023/08/13 05:08:25;;;;;;;13.90;4.43;;;17.30;99.90;;;;;;4892539;29;20189;-67
2023/08/13 05:10:51;;;;;;;22.98;4.57;;;17.30;99.90;;;;;;4896349;29;20237;-69
2023/08/13 05:13:17;;;;;;;15.88;4.07;;;17.40;99.90;;;;;;4888427;29;20285;-68
2023/08/13 05:15:43;;;;;;;17.95;4.68;;;17.40;99.90;;;;;;4896651;29;20188;-66
2023/08/13 05:18:11;;;;;;;19.02;4.70;;;17.50;99.90;;;;;;4906912;29;20184;-68
2023/08/13 05:20:37;;;;;;;18.80;4.53;;;17.50;99.90;;;;;;4891833;29;20211;-63
2023/08/13 05:23:03;;;;;;;20.95;4.35;;;17.60;99.90;;;;;;4894152;29;20245;-67
2023/08/13 05:25:30;;;;;;;17.23;4.47;;;17.60;99.90;;;;;;4888835;29;20193;-67
2023/08/13 05:27:56;;;;;;;16.80;4.15;;;17.70;99.90;;;;;;4895831;29;20217;-65
2023/08/13 05:30:22;;;;;;;14.50;4.00;;;17.70;99.90;;;;;;4891653;29;20196;-66
2023/08/13 05:32:48;;;;;;;23.80;4.50;;;17.80;99.90;;;;;;4904481;29;20229;-66
2023/08/13 05:35:14;;;;;;;21.20;4.78;;;17.80;99.90;;;;;;4888564;29;20196;-65
2023/08/13 05:37:40;;;;;;;19.30;4.60;;;17.80;99.90;;;;;;4897577;29;20231;-69
2023/08/13 05:40:08;;;;;;;19.70;5.15;;;17.90;99.90;;;;;;4878952;29;20201;-65
2023/08/13 05:42:36;;;;;;;13.38;4.07;;;17.90;99.90;;;;;;4869198;29;20638;-65
2023/08/13 05:45:02;;;;;;;20.17;4.43;;;17.90;99.90;;;;;;4854798;29;20280;-65
2023/08/13 05:47:28;;;;;;;20.85;4.70;;;18.00;99.90;;;;;;4891471;29;20617;-64
2023/08/13 05:49:54;;;;;;;15.35;4.10;;;18.00;99.90;;;;;;4908248;29;20193;-65
2023/08/13 05:52:22;;;;;;;12.98;4.22;;;18.00;99.90;;;;;;4893020;29;20217;-69
2023/08/13 05:54:48;;;;;;;18.60;4.70;;;18.00;99.90;;;;;;4898520;29;20280;-65
2023/08/13 05:57:13;;;;;;;20.35;4.55;;;18.10;99.90;;;;;;4889139;29;20285;-65
2023/08/13 05:59:40;;;;;;;19.13;4.72;;;18.10;99.90;;;;;;4880236;29;20193;-66
2023/08/13 06:02:06;;;;;;;19.38;4.80;;;18.10;99.90;;;;;;4896199;29;20268;-63
2023/08/13 06:04:34;;;;;;;20.02;4.70;;;18.10;99.90;;;;;;4886972;29;20284;-64
2023/08/13 06:07:01;;;;;;;18.65;4.38;;;18.10;99.90;;;;;;4893222;29;20276;-60
2023/08/13 06:09:28;;;;;;;15.32;4.55;;;18.10;99.90;;;;;;4883680;29;20216;-73
2023/08/13 06:11:54;;;;;;;16.85;4.88;;;18.10;99.90;;;;;;4887825;29;20226;-72
2023/08/13 06:14:20;;;;;;;15.27;4.40;;;18.10;99.90;;;;;;4893575;29;20193;-72
2023/08/13 06:16:46;;;;;;;13.88;4.38;;;18.10;99.90;;;;;;4892843;29;20198;-72
2023/08/13 06:19:12;;;;;;;24.25;4.55;;;18.00;99.90;;;;;;4888682;29;20800;-74
2023/08/13 06:21:38;;;;;;;17.45;4.38;;;18.00;99.90;;;;;;4893664;29;20239;-72
2023/08/13 06:24:05;;;;;;;21.23;4.90;;;18.00;99.90;;;;;;4894957;29;20204;-72
2023/08/13 06:26:32;;;;;;;21.70;5.18;;;18.00;99.90;;;;;;4894813;29;20721;-73
2023/08/13 06:28:58;;;;;;;16.98;5.00;;;17.90;99.90;;;;;;4897238;29;20192;-72
2023/08/13 06:31:24;;;;;;;15.57;4.68;;;17.90;99.90;;;;;;4893040;29;20334;-72
2023/08/13 06:33:50;;;;;;;23.70;4.85;;;17.90;99.90;;;;;;4872748;29;20311;-71
2023/08/13 06:36:16;;;;;;;16.83;4.65;;;18.00;99.90;;;;;;4894302;29;20188;-72
2023/08/13 06:38:42;;;;;;;18.63;4.70;;;18.00;99.90;;;;;;4897667;29;20206;-73
2023/08/13 06:41:08;;;;;;;16.75;5.10;;;18.10;99.90;;;;;;4895631;29;20224;-72
2023/08/13 06:43:34;;;;;;;18.75;4.57;;;18.10;99.90;;;;;;4896838;29;20200;-71
2023/08/13 06:46:01;;;;;;;15.85;4.72;;;18.20;99.90;;;;;;4896109;29;20188;-73
2023/08/13 06:48:31;;;;;;;16.80;4.82;;;18.30;99.90;;;;;;4896349;29;20366;-73
2023/08/13 06:50:57;;;;;;;20.00;4.88;;;18.40;99.90;;;;;;4892094;29;20236;-72
2023/08/13 06:53:24;;;;;;;14.57;4.43;;;18.40;99.90;;;;;;4888423;29;20216;-72
2023/08/13 06:55:50;;;;;;;18.33;5.10;;;18.50;99.90;;;;;;4874389;29;20228;-72
2023/08/13 06:58:16;;;;;;;19.73;5.10;;;18.50;99.90;;;;;;4892948;29;20224;-72
2023/08/13 07:00:43;;;;;;;16.52;4.68;;;18.40;99.90;;;;;;4892899;29;20669;-72
2023/08/13 07:03:09;;;;;;;11.65;5.15;;;18.40;99.90;;;;;;4895722;29;20193;-72
2023/08/13 07:05:37;;;;;;;14.38;4.80;;;18.40;99.90;;;;;;4881492;29;20189;-72
2023/08/13 07:08:04;;;;;;;19.17;5.15;;;18.40;99.90;;;;;;4884814;29;20193;-72
2023/08/13 07:10:31;;;;;;;14.93;4.63;;;18.40;99.90;;;;;;4888850;29;20197;-73
2023/08/13 07:12:57;;;;;;;19.20;5.07;;;18.50;99.90;;;;;;4896724;29;20234;-72
2023/08/13 07:15:23;;;;;;;15.38;4.82;;;18.50;99.90;;;;;;4895835;29;20287;-72
2023/08/13 07:17:49;;;;;;;19.90;4.38;;;18.60;99.90;;;;;;4889059;29;20650;-72
2023/08/13 07:20:15;;;;;;;21.00;4.60;;;18.60;99.90;;;;;;4891289;29;20197;-50
2023/08/13 07:22:43;;;;;;;20.30;4.43;;;18.70;99.90;;;;;;4894432;29;20228;-67
2023/08/13 07:25:11;;;;;;;16.17;4.45;;;18.80;99.90;;;;;;4888135;29;20188;-67
2023/08/13 07:27:41;;;;;;;14.68;4.20;;;18.80;99.90;;;;;;4880698;29;20185;-68
2023/08/13 07:30:11;;;;;;;15.15;4.30;;;18.90;99.90;;;;;;4884298;29;20654;-68
2023/08/13 07:32:42;;;;;;;14.88;4.28;;;19.00;99.90;;;;;;4894859;29;20239;-68
2023/08/13 07:35:10;;;;;;;16.45;4.55;;;19.00;99.90;;;;;;4893971;29;20216;-68
2023/08/13 07:37:36;;;;;;;18.60;4.55;;;19.10;99.90;;;;;;4895033;29;20196;-68
2023/08/13 07:40:11;;;;;;;14.07;3.95;;;19.10;99.90;;;;;;4895283;29;20247;-68
2023/08/13 07:42:39;;;;;;;19.38;4.90;;;19.20;99.90;;;;;;4892310;29;20220;-68
2023/08/13 07:45:05;;;;;;;17.27;4.25;;;19.30;99.90;;;;;;4892424;29;20196;-67
2023/08/13 07:47:32;;;;;;;15.73;4.05;;;19.30;99.90;;;;;;4896269;29;20184;-68
2023/08/13 07:49:58;;;;;;;14.07;3.97;;;19.30;99.90;;;;;;4895746;29;20235;-67
2023/08/13 07:52:24;;;;;;;17.17;4.53;;;19.40;99.90;;;;;;4889963;29;20220;-67
2023/08/13 07:54:50;;;;;;;19.90;4.47;;;19.50;99.90;;;;;;4886879;29;20549;-67
2023/08/13 07:57:16;;;;;;;17.13;4.20;;;19.50;99.90;;;;;;4910198;29;20192;-67
2023/08/13 07:59:42;;;;;;;13.48;4.32;;;19.50;99.90;;;;;;4894575;29;20678;-67
2023/08/13 08:02:08;;;;;;;16.65;4.45;;;19.60;99.90;;;;;;4897914;29;20646;-67
2023/08/13 08:04:34;;;;;;;17.45;4.05;;;19.60;99.90;;;;;;4891130;29;20232;-67
2023/08/13 08:07:00;;;;;;;15.43;3.83;;;19.70;99.90;;;;;;4899197;29;20653;-67
2023/08/13 08:09:26;;;;;;;12.32;4.03;;;19.70;99.90;;;;;;4896429;29;20317;-67
2023/08/13 08:11:52;;;;;;;13.30;4.18;;;19.80;99.90;;;;;;4899549;29;20672;-67
2023/08/13 08:14:18;;;;;;;13.32;3.50;;;20.00;99.90;;;;;;4887425;29;20201;-68
2023/08/13 08:16:44;;;;;;;11.52;3.65;;;20.20;99.90;;;;;;4885487;29;20185;-68
2023/08/13 08:19:10;;;;;;;11.75;3.80;;;20.40;99.90;;;;;;4889468;29;20197;-68
2023/08/13 08:21:37;;;;;;;12.38;3.85;;;20.50;99.90;;;;;;4861480;29;1125073;-68
2023/08/13 08:24:03;;;;;;;15.75;3.85;;;20.50;99.90;;;;;;4899514;29;20197;-68
2023/08/13 08:26:30;;;;;;;18.40;4.13;;;20.50;99.90;;;;;;4898778;29;20197;-68
2023/08/13 08:28:56;;;;;;;10.63;3.40;;;20.60;99.90;;;;;;4882303;29;20198;-68
2023/08/13 08:31:22;;;;;;;19.10;3.67;;;20.60;99.90;;;;;;4897595;29;20199;-68
2023/08/13 08:33:48;;;;;;;16.35;4.10;;;20.60;99.90;;;;;;4893922;29;20772;-68
2023/08/13 08:36:14;;;;;;;10.98;3.65;;;20.70;99.90;;;;;;4898608;29;20272;-67
2023/08/13 08:38:40;;;;;;;12.88;3.75;;;20.80;99.90;;;;;;4897216;29;20189;-69
2023/08/13 08:41:09;;;;;;;13.68;3.80;;;20.80;99.90;;;;;;4889310;29;20348;-68
2023/08/13 08:43:38;;;;;;;18.85;3.63;;;20.90;99.90;;;;;;4894100;29;20192;-68
2023/08/13 08:46:08;;;;;;;9.90;3.28;;;21.00;99.90;;;;;;4899932;29;20180;-68
2023/08/13 08:48:34;;;;;;;14.40;3.30;;;21.10;99.90;;;;;;4898392;29;20188;-68
2023/08/13 08:51:00;;;;;;;12.43;3.08;;;21.20;99.90;;;;;;4897697;29;20185;-68
2023/08/13 08:53:27;;;;;;;12.20;3.38;;;21.30;99.90;;;;;;4899253;29;20239;-68
2023/08/13 08:55:53;;;;;;;13.93;3.60;;;21.40;99.90;;;;;;4867360;29;20252;-70
2023/08/13 08:58:20;;;;;;;15.43;3.10;;;21.40;99.90;;;;;;4894979;29;20571;-68
2023/08/13 09:00:46;;;;;;;11.13;3.03;;;21.50;99.90;;;;;;4894898;29;20197;-68
2023/08/13 09:03:12;;;;;;;11.82;3.00;;;21.50;99.90;;;;;;4888483;29;20201;-67
2023/08/13 09:05:41;;;;;;;19.25;3.35;;;21.50;99.90;;;;;;4898289;29;20245;-67
2023/08/13 09:08:11;;;;;;;11.13;3.08;;;21.60;99.90;;;;;;4897525;29;20265;-66
2023/08/13 09:10:41;;;;;;;13.20;2.92;;;21.70;99.90;;;;;;4893757;29;20197;-67
2023/08/13 09:13:07;;;;;;;14.75;2.90;;;21.70;99.90;;;;;;4895554;29;20223;-67
2023/08/13 09:15:33;;;;;;;11.65;2.70;;;21.90;99.90;;;;;;4910680;29;20685;-68
2023/08/13 09:18:00;;;;;;;9.73;2.40;;;21.90;99.90;;;;;;4889397;29;20212;-67
2023/08/13 09:20:26;;;;;;;11.13;2.35;;;21.90;99.90;;;;;;4898478;29;20253;-65
2023/08/13 09:22:52;;;;;;;10.05;2.70;;;22.00;99.90;;;;;;4889307;29;20709;-65
2023/08/13 09:25:19;;;;;;;7.95;2.35;;;22.00;99.90;;;;;;4895218;29;20212;-66
2023/08/13 09:27:46;;;;;;;16.48;2.70;;;22.10;99.90;;;;;;4899087;29;20268;-64
2023/08/13 09:30:20;;;;;;;10.38;2.45;;;22.10;99.90;;;;;;4900000;29;21013;-65
2023/08/13 09:32:46;;;;;;;8.88;2.30;;;22.20;99.90;;;;;;4890296;29;20217;-67
2023/08/13 09:35:12;;;;;;;14.68;2.50;;;22.20;99.90;;;;;;4889408;29;20340;-65
2023/08/13 09:37:38;;;;;;;10.23;2.50;;;22.20;99.90;;;;;;4893530;29;20657;-62
2023/08/13 09:40:06;;;;;;;11.70;2.40;;;22.20;99.90;;;;;;4894612;29;20197;-66
2023/08/13 09:42:33;;;;;;;6.45;1.90;;;22.10;99.90;;;;;;4885041;29;20551;-65
2023/08/13 09:45:03;;;;;;;7.88;2.40;;;22.20;99.90;;;;;;4911439;29;20189;-64
2023/08/13 09:47:35;;;;;;;5.75;1.88;;;22.30;99.90;;;;;;4883115;29;20193;-64
2023/08/13 09:50:02;;;;;;;8.95;2.50;;;22.30;99.90;;;;;;4901073;29;20184;-64
2023/08/13 09:52:31;;;;;;;12.45;2.63;;;22.30;99.90;;;;;;4901677;29;20764;-65
2023/08/13 09:55:15;;;;;;;10.90;2.42;;;22.30;99.90;;;;;;4877747;29;20721;-66
2023/08/13 09:57:43;;;;;;;7.55;2.20;;;22.30;99.90;;;;;;4895801;29;20188;-66
2023/08/13 10:00:11;;;;;;;11.13;2.80;;;22.30;99.90;;;;;;4896335;29;20189;-65
2023/08/13 10:02:41;;;;;;;8.20;2.58;;;22.30;99.90;;;;;;4896041;29;20658;-64
2023/08/13 10:05:08;;;;;;;8.85;2.05;;;22.40;99.90;;;;;;4885411;29;20189;-64
2023/08/13 10:07:36;;;;;;;10.45;3.28;;;22.40;99.90;;;;;;4905164;29;20228;-63
2023/08/13 10:10:03;;;;;;;11.30;2.85;;;22.50;99.90;;;;;;4892314;29;20212;-63
2023/08/13 10:12:31;;;;;;;9.65;2.42;;;22.50;99.90;;;;;;4887524;29;20331;-64
2023/08/13 10:14:59;;;;;;;9.98;2.50;;;22.70;99.90;;;;;;4896521;29;20185;-64
2023/08/13 10:17:27;;;;;;;13.32;2.45;;;22.80;99.90;;;;;;4895003;29;20204;-64
2023/08/13 10:19:55;;;;;;;8.07;2.40;;;22.90;99.90;;;;;;4894240;29;20532;-64
2023/08/13 10:22:32;;;;;;;5.28;1.90;;;22.90;99.90;;;;;;4908134;29;20239;-65
2023/08/13 10:24:59;;;;;;;8.98;1.80;;;23.00;99.90;;;;;;4878098;29;20218;-64
2023/08/13 10:27:26;;;;;;;8.10;2.08;;;23.20;99.90;;;;;;4895044;29;20533;-64
2023/08/13 10:30:05;;;;;;;11.07;2.33;;;23.30;99.90;;;;;;4910642;29;20189;-63
2023/08/13 10:32:31;;;;;;;9.75;2.30;;;23.30;99.90;;;;;;4896221;29;20209;-63
2023/08/13 10:34:57;;;;;;;6.68;2.17;;;23.30;99.90;;;;;;4894480;29;20228;-63
2023/08/13 10:37:24;;;;;;;5.70;1.70;;;23.30;99.90;;;;;;4878235;29;20200;-66
2023/08/13 10:39:56;;;;;;;9.25;2.08;;;23.20;99.90;;;;;;4884521;29;20188;-62
2023/08/13 10:42:32;;;;;;;6.55;2.30;;;23.00;99.90;;;;;;4890833;29;20556;-63
2023/08/13 10:45:06;;;;;;;11.02;2.28;;;23.00;99.90;;;;;;4895270;29;20199;-63
2023/08/13 10:47:39;;;;;;;6.93;2.00;;;23.00;99.90;;;;;;4884177;29;20192;-63
2023/08/13 10:50:24;;;;;;;7.53;2.30;;;23.10;99.90;;;;;;4895429;29;20204;-63
2023/08/13 10:52:52;;;;;;;10.07;2.58;;;23.00;99.90;;;;;;4884927;29;20252;-64
2023/08/13 10:55:22;;;;;;;7.65;2.38;;;23.20;99.90;;;;;;4896516;29;20197;-64
2023/08/13 10:57:50;;;;;;;9.63;2.10;;;23.10;99.90;;;;;;4897680;29;20645;-63
2023/08/13 11:00:17;;;;;;;6.78;2.00;;;23.20;99.90;;;;;;4896399;29;20200;-63
2023/08/13 11:02:51;;;;;;;6.43;2.00;;;23.20;99.90;;;;;;4894299;29;20673;-63
2023/08/13 11:05:17;;;;;;;7.72;1.83;;;23.20;99.90;;;;;;4892882;29;20275;-63
2023/08/13 11:07:43;;;;;;;5.40;2.10;;;23.20;99.90;;;;;;4892795;29;20196;-62
2023/08/13 11:10:17;;;;;;;6.35;1.80;;;23.20;99.90;;;;;;4885010;29;20193;-61
2023/08/13 11:12:47;;;;;;;5.07;1.92;;;23.30;99.90;;;;;;4899432;29;20243;-63
2023/08/13 11:15:14;;;;;;;7.47;2.20;;;23.30;99.90;;;;;;4882205;29;20204;-64
2023/08/13 11:17:46;;;;;;;11.52;2.30;;;23.30;99.90;;;;;;4888501;29;20207;-64
2023/08/13 11:20:21;;;;;;;12.00;2.55;;;23.40;99.90;;;;;;4910186;29;20193;-64
2023/08/13 11:22:49;;;;;;;7.53;2.03;;;23.40;99.90;;;;;;4891152;29;20239;-63
2023/08/13 11:25:15;;;;;;;7.90;2.15;;;23.60;99.90;;;;;;4890670;29;20197;-65
2023/08/13 11:27:41;;;;;;;8.75;2.58;;;23.70;99.90;;;;;;4895002;29;20195;-64
2023/08/13 11:30:08;;;;;;;7.40;2.30;;;23.80;99.90;;;;;;4894309;29;20268;-61
2023/08/13 11:32:38;;;;;;;11.95;2.20;;;23.80;99.90;;;;;;4894015;29;20220;-64
2023/08/13 11:35:06;;;;;;;6.90;2.10;;;23.80;99.90;;;;;;4860281;29;20660;-64
2023/08/13 11:37:33;;;;;;;8.05;2.70;;;23.80;99.90;;;;;;4889317;29;20283;-63
2023/08/13 11:39:59;;;;;;;8.73;2.33;;;23.70;99.90;;;;;;4901694;29;20296;-62
2023/08/13 11:42:25;;;;;;;6.35;2.30;;;23.80;99.90;;;;;;4909898;29;20188;-64
2023/08/13 11:44:51;;;;;;;5.72;2.10;;;23.80;99.90;;;;;;4896724;29;20224;-62
2023/08/13 11:47:27;;;;;;;6.40;1.80;;;23.90;99.90;;;;;;4894941;29;20277;-62
2023/08/13 11:49:58;;;;;;;7.07;1.90;;;24.00;99.90;;;;;;4894406;29;20272;-64
2023/08/13 11:52:25;;;;;;;5.35;2.08;;;24.10;99.90;;;;;;4893974;29;20315;-63
2023/08/13 11:54:51;;;;;;;9.40;2.10;;;24.10;99.90;;;;;;4894550;29;20588;-65
2023/08/13 11:57:20;;;;;;;9.15;2.40;;;24.10;99.90;;;;;;4910148;29;20192;-64
2023/08/13 11:59:49;;;;;;;7.80;2.20;;;24.10;99.90;;;;;;4896622;29;20260;-63
2023/08/13 12:02:16;;;;;;;5.13;1.75;;;24.20;99.90;;;;;;4891461;29;20725;-66
2023/08/13 12:04:47;;;;;;;7.68;2.03;;;24.30;99.90;;;;;;4905793;29;20192;-63
2023/08/13 12:07:15;;;;;;;7.00;1.77;;;24.40;99.90;;;;;;4896477;29;20200;-64
2023/08/13 12:09:41;;;;;;;6.45;2.10;;;24.50;99.90;;;;;;4896429;29;20196;-63
2023/08/13 12:12:07;;;;;;;6.43;2.00;;;24.60;99.90;;;;;;4894206;29;20189;-63
2023/08/13 12:14:41;;;;;;;7.47;1.80;;;24.60;99.90;;;;;;4888456;29;20196;-64
2023/08/13 12:17:07;;;;;;;5.88;1.98;;;24.70;99.90;;;;;;4892555;29;20662;-63
2023/08/13 12:19:33;;;;;;;7.47;1.80;;;24.80;99.90;;;;;;4894817;29;20204;-64
2023/08/13 12:21:59;;;;;;;6.82;1.70;;;24.80;99.90;;;;;;4895706;29;20233;-64
2023/08/13 12:24:25;;;;;;;6.07;1.65;;;24.80;99.90;;;;;;4890905;29;20583;-64
2023/08/13 12:26:51;;;;;;;21.42;10.52;;;24.80;99.90;;;;;;4895436;29;20196;-64
2023/08/13 12:29:17;;;;;;;6.20;2.00;;;24.70;99.90;;;;;;4896402;29;20204;-64
2023/08/13 12:31:43;;;;;;;8.43;1.92;;;24.60;99.90;;;;;;4894620;29;20265;-64
2023/08/13 12:34:08;;;;;;;4.75;1.60;;;24.50;99.90;;;;;;4909207;29;20228;-63
2023/08/13 12:36:34;;;;;;;4.68;1.50;;;24.50;99.90;;;;;;4895911;29;20251;-64
2023/08/13 12:39:00;;;;;;;7.22;1.65;;;24.30;99.90;;;;;;4895119;29;20185;-64
2023/08/13 12:41:26;;;;;;;8.38;1.55;;;24.30;99.90;;;;;;4895228;29;20196;-63